RJNG(METAR)
06/25 08:00
METAR RJNG 242300Z VRB02KT 9999 FEW030 23/15 Q1016 RMK 1CU030 A3002=
戻る
トップページへ戻る
IMOC Co,.Ltd.